Time;durP1;ratioP1;P1;durP2;ratioP2;P2;SDS_P1;SDS_P2;PMS_P1;PMS_P2;Temp;Humidity;BMP_temperature;BMP_pressure;BME280_temperature;BME280_humidity;BME280_pressure;Samples;Min_cycle;Max_cycle;Signal;HPM_P1;HPM_P2
2024/01/05 00:01:06;;;;;;;2.35;1.35;;;;;;;;;;5136244;27;20070;-68
2024/01/05 00:03:31;;;;;;;2.88;1.60;;;;;;;;;;5136161;27;20114;-68
2024/01/05 00:05:57;;;;;;;2.08;1.30;;;;;;;;;;5136130;27;20416;-68
2024/01/05 00:08:22;;;;;;;4.72;1.73;;;;;;;;;;5136265;27;20484;-68
2024/01/05 00:10:47;;;;;;;5.35;1.70;;;;;;;;;;5136063;27;20034;-68
2024/01/05 00:13:13;;;;;;;3.42;1.50;;;;;;;;;;5136046;27;20075;-68
2024/01/05 00:15:38;;;;;;;2.88;1.67;;;;;;;;;;5136011;27;20022;-69
2024/01/05 00:18:05;;;;;;;2.15;1.20;;;;;;;;;;5136062;27;20388;-68
2024/01/05 00:20:30;;;;;;;2.40;1.23;;;;;;;;;;5135789;27;20438;-68
2024/01/05 00:22:56;;;;;;;2.60;1.40;;;;;;;;;;5135630;27;20115;-68
2024/01/05 00:25:21;;;;;;;2.85;1.38;;;;;;;;;;5135835;27;20037;-68
2024/01/05 00:27:47;;;;;;;2.35;1.20;;;;;;;;;;5135844;27;20054;-67
2024/01/05 00:30:13;;;;;;;2.75;1.60;;;;;;;;;;5134481;27;20057;-68
2024/01/05 00:32:39;;;;;;;2.70;1.30;;;;;;;;;;5135568;27;20054;-68
2024/01/05 00:35:06;;;;;;;1.65;1.15;;;;;;;;;;5135202;27;20504;-68
2024/01/05 00:37:32;;;;;;;3.60;1.73;;;;;;;;;;5135422;27;20029;-68
2024/01/05 00:39:57;;;;;;;3.40;1.88;;;;;;;;;;5135753;27;20102;-68
2024/01/05 00:42:22;;;;;;;2.50;1.55;;;;;;;;;;5135319;27;20462;-68
2024/01/05 00:44:48;;;;;;;3.88;1.88;;;;;;;;;;5116875;27;20084;-68
2024/01/05 00:47:13;;;;;;;2.65;1.10;;;;;;;;;;5135156;27;20023;-68
2024/01/05 00:49:39;;;;;;;3.25;1.88;;;;;;;;;;5135109;27;20023;-68
2024/01/05 00:52:04;;;;;;;3.22;1.50;;;;;;;;;;5116581;27;20019;-68
2024/01/05 00:54:30;;;;;;;3.53;1.40;;;;;;;;;;5134994;27;20102;-68
2024/01/05 00:57:09;;;;;;;4.50;2.28;;;;;;;;;;5069775;28;20433;-67
2024/01/05 00:59:34;;;;;;;7.60;2.65;;;;;;;;;;5069842;28;20428;-67
2024/01/05 01:02:00;;;;;;;2.20;1.40;;;;;;;;;;5069972;28;20029;-67
2024/01/05 01:04:25;;;;;;;3.58;1.63;;;;;;;;;;5069459;28;20328;-67
2024/01/05 01:06:50;;;;;;;2.20;1.30;;;;;;;;;;5069596;28;20115;-67
2024/01/05 01:09:16;;;;;;;2.75;1.50;;;;;;;;;;5069570;28;20442;-67
2024/01/05 01:11:42;;;;;;;1.65;1.15;;;;;;;;;;5069387;28;20366;-67
2024/01/05 01:14:07;;;;;;;2.03;1.30;;;;;;;;;;5069399;28;20367;-67
2024/01/05 01:16:32;;;;;;;2.28;1.30;;;;;;;;;;5069358;28;20128;-67
2024/01/05 01:18:59;;;;;;;2.88;1.58;;;;;;;;;;5069247;28;20119;-67
2024/01/05 01:21:25;;;;;;;3.25;1.60;;;;;;;;;;5069246;28;20029;-67
2024/01/05 01:23:51;;;;;;;3.40;1.13;;;;;;;;;;5069289;28;20028;-67
2024/01/05 01:26:16;;;;;;;2.72;1.50;;;;;;;;;;5066930;28;20059;-68
2024/01/05 01:28:42;;;;;;;2.60;1.48;;;;;;;;;;5059085;28;20456;-68
2024/01/05 01:31:07;;;;;;;5.60;2.05;;;;;;;;;;5068527;28;20037;-68
2024/01/05 01:33:33;;;;;;;4.30;2.00;;;;;;;;;;5068970;28;20021;-68
2024/01/05 01:35:58;;;;;;;4.10;1.60;;;;;;;;;;5069018;28;20374;-68
2024/01/05 01:38:24;;;;;;;3.65;1.58;;;;;;;;;;5069043;28;20031;-68
2024/01/05 01:40:49;;;;;;;4.07;1.65;;;;;;;;;;5068889;28;20366;-67
2024/01/05 01:43:24;;;;;;;3.65;1.50;;;;;;;;;;5068836;28;20467;-68
2024/01/05 01:45:51;;;;;;;2.35;1.33;;;;;;;;;;5068265;28;20036;-68
2024/01/05 01:48:18;;;;;;;2.53;1.55;;;;;;;;;;5068514;28;20044;-68
2024/01/05 01:50:44;;;;;;;3.35;1.30;;;;;;;;;;5067850;28;20526;-68
2024/01/05 01:53:13;;;;;;;3.58;1.40;;;;;;;;;;5068363;28;20036;-68
2024/01/05 01:55:40;;;;;;;1.83;1.30;;;;;;;;;;5065148;28;20501;-67
2024/01/05 01:58:05;;;;;;;3.95;1.30;;;;;;;;;;5068026;28;20425;-68
2024/01/05 02:00:32;;;;;;;3.42;1.65;;;;;;;;;;5067900;28;20024;-68
2024/01/05 02:02:58;;;;;;;1.80;1.05;;;;;;;;;;5067873;28;20401;-68
2024/01/05 02:05:23;;;;;;;2.00;1.20;;;;;;;;;;5067840;28;20120;-68
2024/01/05 02:07:49;;;;;;;1.70;1.20;;;;;;;;;;5057199;28;20028;-68
2024/01/05 02:10:15;;;;;;;3.58;1.27;;;;;;;;;;5054088;28;20025;-67
2024/01/05 02:12:40;;;;;;;2.10;1.30;;;;;;;;;;5054358;28;20485;-68
2024/01/05 02:15:06;;;;;;;1.83;1.10;;;;;;;;;;5051999;28;20044;-68
2024/01/05 02:17:33;;;;;;;2.40;1.30;;;;;;;;;;5053799;28;20070;-68
2024/01/05 02:19:59;;;;;;;1.75;1.10;;;;;;;;;;5054584;28;20374;-68
2024/01/05 02:22:29;;;;;;;4.20;1.60;;;;;;;;;;5054619;28;20458;-68
2024/01/05 02:24:57;;;;;;;4.55;1.65;;;;;;;;;;5054543;28;20037;-68
2024/01/05 02:27:23;;;;;;;2.80;1.48;;;;;;;;;;5054680;28;20044;-68
2024/01/05 02:29:48;;;;;;;2.78;1.30;;;;;;;;;;5054364;28;20466;-68
2024/01/05 02:32:14;;;;;;;2.90;1.33;;;;;;;;;;5054405;28;20028;-68
2024/01/05 02:34:40;;;;;;;5.43;1.70;;;;;;;;;;5054310;28;20025;-68
2024/01/05 02:37:05;;;;;;;3.25;1.55;;;;;;;;;;5054428;28;20052;-67
2024/01/05 02:39:30;;;;;;;3.10;1.58;;;;;;;;;;5054313;28;20025;-67
2024/01/05 02:41:56;;;;;;;2.78;1.52;;;;;;;;;;5054435;28;20100;-67
2024/01/05 02:44:21;;;;;;;2.67;1.48;;;;;;;;;;5053892;28;20348;-67
2024/01/05 02:46:47;;;;;;;4.45;1.80;;;;;;;;;;5054303;28;20056;-67
2024/01/05 02:49:12;;;;;;;4.15;1.67;;;;;;;;;;5054302;28;20021;-68
2024/01/05 02:51:39;;;;;;;3.17;1.40;;;;;;;;;;5056302;28;20364;-67
2024/01/05 02:54:05;;;;;;;2.60;1.38;;;;;;;;;;5051606;28;20029;-67
2024/01/05 02:56:31;;;;;;;2.10;1.15;;;;;;;;;;5053931;28;20052;-68
2024/01/05 02:58:57;;;;;;;2.05;1.23;;;;;;;;;;5053721;28;20410;-68
2024/01/05 03:01:22;;;;;;;4.53;1.40;;;;;;;;;;5054031;28;20040;-68
2024/01/05 03:03:48;;;;;;;3.58;1.20;;;;;;;;;;5053935;28;20021;-68
2024/01/05 03:06:15;;;;;;;3.65;1.50;;;;;;;;;;5053875;28;20037;-68
2024/01/05 03:08:41;;;;;;;2.35;1.50;;;;;;;;;;5053830;28;20104;-68
2024/01/05 03:11:06;;;;;;;3.88;1.50;;;;;;;;;;5053921;28;20124;-68
2024/01/05 03:13:31;;;;;;;11.10;2.85;;;;;;;;;;5053555;28;20020;-68
2024/01/05 03:15:57;;;;;;;19.15;4.85;;;;;;;;;;5053656;28;20028;-68
2024/01/05 03:18:22;;;;;;;11.57;3.25;;;;;;;;;;5052913;28;20046;-68
2024/01/05 03:20:48;;;;;;;12.27;2.97;;;;;;;;;;5053546;28;20488;-67
2024/01/05 03:23:14;;;;;;;9.15;2.60;;;;;;;;;;5054037;28;20052;-67
2024/01/05 03:25:41;;;;;;;5.57;2.08;;;;;;;;;;5053952;28;20033;-67
2024/01/05 03:28:07;;;;;;;4.68;1.85;;;;;;;;;;5053782;28;20062;-67
2024/01/05 03:30:32;;;;;;;3.15;1.60;;;;;;;;;;5053964;28;20049;-68
2024/01/05 03:32:57;;;;;;;2.63;1.42;;;;;;;;;;5052559;28;20039;-68
2024/01/05 03:35:23;;;;;;;3.28;1.27;;;;;;;;;;5053724;28;20343;-68
2024/01/05 03:37:49;;;;;;;2.53;1.20;;;;;;;;;;5053893;28;20410;-68
2024/01/05 03:40:15;;;;;;;3.83;1.50;;;;;;;;;;5053682;28;20028;-68
2024/01/05 03:42:41;;;;;;;5.32;1.70;;;;;;;;;;5053551;28;20021;-67
2024/01/05 03:45:07;;;;;;;4.85;1.50;;;;;;;;;;5053408;28;20029;-68
2024/01/05 03:47:32;;;;;;;4.60;1.55;;;;;;;;;;5053391;28;20036;-68
2024/01/05 03:49:58;;;;;;;3.17;1.58;;;;;;;;;;5053609;28;20083;-68
2024/01/05 03:52:23;;;;;;;6.78;1.85;;;;;;;;;;5070291;28;20017;-69
2024/01/05 03:54:49;;;;;;;4.82;1.40;;;;;;;;;;5072996;28;20073;-68
2024/01/05 03:57:14;;;;;;;5.07;1.83;;;;;;;;;;5073145;28;20024;-68
2024/01/05 03:59:42;;;;;;;2.55;1.50;;;;;;;;;;5073412;28;20473;-69
2024/01/05 04:02:07;;;;;;;6.28;1.77;;;;;;;;;;5073248;28;20158;-68
2024/01/05 04:04:33;;;;;;;5.72;2.47;;;;;;;;;;5073166;28;20058;-67
2024/01/05 04:06:58;;;;;;;6.57;2.40;;;;;;;;;;5073159;28;20134;-68
2024/01/05 04:09:24;;;;;;;4.47;1.75;;;;;;;;;;5072120;28;20473;-68
2024/01/05 04:11:49;;;;;;;3.10;1.70;;;;;;;;;;5072884;28;20082;-68
2024/01/05 04:14:15;;;;;;;4.95;2.20;;;;;;;;;;5072989;28;20466;-68
2024/01/05 04:16:40;;;;;;;5.20;1.92;;;;;;;;;;5072959;28;20109;-68
2024/01/05 04:19:05;;;;;;;7.20;2.75;;;;;;;;;;5072983;28;20052;-68
2024/01/05 04:21:31;;;;;;;3.83;2.35;;;;;;;;;;5072964;28;20060;-68
2024/01/05 04:23:56;;;;;;;3.13;1.95;;;;;;;;;;5072920;28;20462;-67
2024/01/05 04:26:22;;;;;;;14.30;4.28;;;;;;;;;;5072462;28;20025;-68
2024/01/05 04:28:48;;;;;;;4.00;2.40;;;;;;;;;;5072776;28;20029;-68
2024/01/05 04:31:14;;;;;;;3.55;2.53;;;;;;;;;;5072733;28;20431;-67
2024/01/05 04:33:39;;;;;;;3.40;2.30;;;;;;;;;;5054604;28;20032;-68
2024/01/05 04:36:05;;;;;;;6.82;2.33;;;;;;;;;;5052647;28;20036;-68
2024/01/05 04:38:31;;;;;;;5.20;2.88;;;;;;;;;;5052663;28;20192;-67
2024/01/05 04:40:57;;;;;;;4.05;2.20;;;;;;;;;;5052094;28;20364;-67
2024/01/05 04:43:23;;;;;;;3.83;2.35;;;;;;;;;;5052774;28;20027;-67
2024/01/05 04:45:48;;;;;;;4.03;2.83;;;;;;;;;;5052345;28;20028;-67
2024/01/05 04:48:13;;;;;;;3.88;2.08;;;;;;;;;;5052723;28;20409;-68
2024/01/05 04:50:39;;;;;;;3.42;1.98;;;;;;;;;;5055069;28;20029;-68
2024/01/05 04:53:04;;;;;;;3.70;1.95;;;;;;;;;;5072648;28;20060;-68
2024/01/05 04:55:29;;;;;;;17.02;6.47;;;;;;;;;;5071909;28;20111;-68
2024/01/05 04:57:56;;;;;;;11.80;5.25;;;;;;;;;;5072636;28;20021;-68
2024/01/05 05:00:21;;;;;;;5.80;2.67;;;;;;;;;;5071348;28;20381;-67
2024/01/05 05:02:47;;;;;;;6.88;3.35;;;;;;;;;;5072562;28;20017;-68
2024/01/05 05:05:13;;;;;;;1.83;1.30;;;;;;;;;;5072523;28;20063;-68
2024/01/05 05:07:38;;;;;;;2.47;1.58;;;;;;;;;;5072647;28;20385;-68
2024/01/05 05:10:04;;;;;;;5.10;1.50;;;;;;;;;;5071095;28;20575;-68
2024/01/05 05:12:29;;;;;;;2.38;1.33;;;;;;;;;;5072670;28;20077;-68
2024/01/05 05:14:55;;;;;;;2.85;1.77;;;;;;;;;;5072276;28;20028;-68
2024/01/05 05:17:20;;;;;;;2.63;1.52;;;;;;;;;;5072527;28;20028;-68
2024/01/05 05:19:46;;;;;;;9.80;1.88;;;;;;;;;;5072339;28;20385;-69
2024/01/05 05:22:11;;;;;;;6.78;2.08;;;;;;;;;;5072308;28;20043;-70
2024/01/05 05:24:37;;;;;;;8.93;2.40;;;;;;;;;;5071973;28;20433;-68
2024/01/05 05:27:02;;;;;;;3.42;1.90;;;;;;;;;;5072147;28;20474;-67
2024/01/05 05:29:28;;;;;;;8.65;2.00;;;;;;;;;;5072147;28;20024;-67
2024/01/05 05:31:53;;;;;;;13.13;3.83;;;;;;;;;;5068698;28;20027;-67
2024/01/05 05:34:19;;;;;;;5.63;2.40;;;;;;;;;;5052166;28;20036;-67
2024/01/05 05:36:45;;;;;;;6.43;2.00;;;;;;;;;;5052167;28;20382;-67
2024/01/05 05:39:10;;;;;;;3.10;1.95;;;;;;;;;;5051962;28;20040;-67
2024/01/05 05:41:36;;;;;;;3.20;1.80;;;;;;;;;;5052018;28;20026;-67
2024/01/05 05:44:03;;;;;;;2.50;1.80;;;;;;;;;;5055979;28;20070;-67
2024/01/05 05:46:28;;;;;;;3.80;1.70;;;;;;;;;;5043668;28;20028;-67
2024/01/05 05:48:54;;;;;;;3.45;1.70;;;;;;;;;;5055792;28;20040;-67
2024/01/05 05:51:19;;;;;;;4.10;1.92;;;;;;;;;;5063889;28;20021;-67
2024/01/05 05:53:45;;;;;;;7.03;1.90;;;;;;;;;;5075471;28;20027;-67
2024/01/05 05:56:10;;;;;;;3.25;1.77;;;;;;;;;;5075410;28;20040;-67
2024/01/05 05:58:36;;;;;;;3.85;1.60;;;;;;;;;;5075531;28;20051;-67
2024/01/05 06:01:01;;;;;;;4.45;1.77;;;;;;;;;;5075627;28;20024;-67
2024/01/05 06:03:27;;;;;;;3.60;1.67;;;;;;;;;;5075639;28;20063;-67
2024/01/05 06:05:52;;;;;;;7.35;2.85;;;;;;;;;;5075433;28;20063;-67
2024/01/05 06:08:18;;;;;;;4.80;2.22;;;;;;;;;;5075283;28;20070;-67
2024/01/05 06:10:43;;;;;;;4.75;2.10;;;;;;;;;;5075387;28;20024;-67
2024/01/05 06:13:09;;;;;;;3.25;1.30;;;;;;;;;;5075329;28;20382;-68
2024/01/05 06:15:34;;;;;;;4.43;2.10;;;;;;;;;;5074838;28;20033;-68
2024/01/05 06:17:59;;;;;;;6.53;2.28;;;;;;;;;;5075302;28;20027;-68
2024/01/05 06:20:25;;;;;;;8.80;2.85;;;;;;;;;;5074995;28;20103;-68
2024/01/05 06:22:51;;;;;;;4.85;2.45;;;;;;;;;;5074785;28;20164;-68
2024/01/05 06:25:16;;;;;;;2.92;1.85;;;;;;;;;;5075138;28;20032;-68
2024/01/05 06:27:42;;;;;;;5.53;2.13;;;;;;;;;;5074851;28;20351;-68
2024/01/05 06:30:11;;;;;;;4.45;1.95;;;;;;;;;;5075168;28;20377;-68
2024/01/05 06:32:37;;;;;;;4.70;2.38;;;;;;;;;;5065619;28;20529;-68
2024/01/05 06:35:07;;;;;;;3.65;1.85;;;;;;;;;;5054848;28;20029;-69
2024/01/05 06:37:32;;;;;;;4.40;2.10;;;;;;;;;;5054806;28;20021;-68
2024/01/05 06:39:58;;;;;;;5.68;2.60;;;;;;;;;;5054945;28;20417;-69
2024/01/05 06:42:23;;;;;;;7.43;2.55;;;;;;;;;;5054715;28;20032;-68
2024/01/05 06:44:50;;;;;;;5.50;2.03;;;;;;;;;;5054397;28;20025;-68
2024/01/05 06:47:16;;;;;;;11.20;2.78;;;;;;;;;;5054613;28;20037;-69
2024/01/05 06:49:41;;;;;;;5.90;3.20;;;;;;;;;;5054787;28;20106;-68
2024/01/05 06:52:07;;;;;;;7.07;3.08;;;;;;;;;;5069026;28;20017;-68
2024/01/05 06:54:34;;;;;;;4.78;2.15;;;;;;;;;;5074510;28;20017;-69
2024/01/05 06:56:59;;;;;;;6.32;2.30;;;;;;;;;;5074386;28;20044;-68
2024/01/05 06:59:30;;;;;;;5.45;1.80;;;;;;;;;;5074624;28;20089;-68
2024/01/05 07:01:55;;;;;;;3.67;1.63;;;;;;;;;;5074587;28;20013;-68
2024/01/05 07:04:21;;;;;;;8.13;2.92;;;;;;;;;;5074280;28;20139;-68
2024/01/05 07:06:46;;;;;;;7.53;3.25;;;;;;;;;;5074006;28;20099;-68
2024/01/05 07:09:13;;;;;;;10.48;4.80;;;;;;;;;;5074231;28;20488;-68
2024/01/05 07:11:39;;;;;;;6.13;2.88;;;;;;;;;;5074254;28;20055;-68
2024/01/05 07:14:04;;;;;;;9.68;3.58;;;;;;;;;;5074168;28;20064;-68
2024/01/05 07:16:30;;;;;;;8.68;3.25;;;;;;;;;;5073983;28;20093;-68
2024/01/05 07:18:55;;;;;;;9.35;3.15;;;;;;;;;;5074069;28;20048;-69
2024/01/05 07:21:21;;;;;;;10.38;4.00;;;;;;;;;;5073894;28;20036;-69
2024/01/05 07:23:46;;;;;;;10.05;3.88;;;;;;;;;;5074021;28;20386;-69
2024/01/05 07:26:12;;;;;;;10.40;3.70;;;;;;;;;;5073963;28;20081;-69
2024/01/05 07:28:37;;;;;;;11.38;4.38;;;;;;;;;;5074036;28;20052;-68
2024/01/05 07:31:05;;;;;;;8.70;3.97;;;;;;;;;;5074050;28;20473;-69
2024/01/05 07:33:31;;;;;;;10.63;3.63;;;;;;;;;;5056739;28;20020;-68
2024/01/05 07:35:56;;;;;;;5.15;2.45;;;;;;;;;;5053439;28;20487;-68
2024/01/05 07:38:22;;;;;;;3.70;2.10;;;;;;;;;;5053802;28;20112;-68
2024/01/05 07:40:47;;;;;;;6.07;3.22;;;;;;;;;;5053704;28;20025;-68
2024/01/05 07:43:13;;;;;;;8.00;3.15;;;;;;;;;;5053718;28;20021;-68
2024/01/05 07:45:39;;;;;;;8.27;3.28;;;;;;;;;;5052927;28;20474;-69
2024/01/05 07:48:05;;;;;;;5.28;2.17;;;;;;;;;;5053426;28;20060;-68
2024/01/05 07:50:31;;;;;;;6.93;3.00;;;;;;;;;;5054425;28;20021;-68
2024/01/05 07:52:57;;;;;;;7.70;2.70;;;;;;;;;;5054977;28;20077;-69
2024/01/05 07:55:22;;;;;;;8.40;2.20;;;;;;;;;;5036598;28;20038;-69
2024/01/05 07:57:48;;;;;;;3.72;1.90;;;;;;;;;;5052714;28;20534;-68
2024/01/05 08:00:13;;;;;;;7.70;2.47;;;;;;;;;;5053746;28;20025;-68
2024/01/05 08:02:39;;;;;;;7.50;2.65;;;;;;;;;;5052947;28;20017;-69
2024/01/05 08:05:05;;;;;;;6.70;2.65;;;;;;;;;;5052106;28;20469;-69
2024/01/05 08:07:31;;;;;;;6.90;2.80;;;;;;;;;;5052231;28;20504;-69
2024/01/05 08:09:56;;;;;;;9.68;2.25;;;;;;;;;;5053434;28;20025;-69
2024/01/05 08:12:22;;;;;;;5.55;2.67;;;;;;;;;;5052753;28;20021;-68
2024/01/05 08:14:47;;;;;;;5.90;2.35;;;;;;;;;;5052655;28;20053;-68
2024/01/05 08:17:13;;;;;;;3.83;2.05;;;;;;;;;;5052500;28;20061;-67
2024/01/05 08:19:39;;;;;;;5.55;2.65;;;;;;;;;;5052363;28;20029;-68
2024/01/05 08:22:04;;;;;;;5.78;2.17;;;;;;;;;;5052622;28;20071;-68
2024/01/05 08:24:30;;;;;;;5.70;1.90;;;;;;;;;;5052486;28;20031;-68
2024/01/05 08:26:55;;;;;;;4.32;1.75;;;;;;;;;;5053016;28;20021;-68
2024/01/05 08:29:21;;;;;;;5.70;2.03;;;;;;;;;;5052422;28;20025;-68
2024/01/05 08:31:51;;;;;;;4.55;1.95;;;;;;;;;;5052227;28;20135;-68
2024/01/05 08:34:17;;;;;;;4.90;2.40;;;;;;;;;;5052342;28;20021;-68
2024/01/05 08:36:42;;;;;;;5.50;3.00;;;;;;;;;;5052291;28;20056;-68
2024/01/05 08:39:08;;;;;;;3.00;1.83;;;;;;;;;;5052326;28;20475;-68
2024/01/05 08:41:33;;;;;;;4.50;2.17;;;;;;;;;;5052286;28;20024;-68
2024/01/05 08:43:59;;;;;;;2.40;1.48;;;;;;;;;;5051918;28;20063;-69
2024/01/05 08:46:28;;;;;;;4.07;2.22;;;;;;;;;;5051741;28;20044;-68
2024/01/05 08:48:53;;;;;;;3.53;1.77;;;;;;;;;;5052244;28;20113;-69
2024/01/05 08:51:19;;;;;;;4.53;2.42;;;;;;;;;;5051940;28;20508;-69
2024/01/05 08:53:45;;;;;;;3.85;2.15;;;;;;;;;;5051960;28;20474;-69
2024/01/05 08:56:10;;;;;;;2.70;1.50;;;;;;;;;;5051858;28;20055;-68
2024/01/05 08:58:36;;;;;;;4.13;1.88;;;;;;;;;;5052246;28;20029;-68
2024/01/05 09:01:01;;;;;;;3.72;1.75;;;;;;;;;;5052667;28;20480;-69
2024/01/05 09:03:27;;;;;;;4.32;2.08;;;;;;;;;;5052041;28;20040;-69
2024/01/05 09:05:53;;;;;;;8.00;3.35;;;;;;;;;;5051553;28;20037;-68
2024/01/05 09:08:18;;;;;;;3.80;2.05;;;;;;;;;;5052072;28;20132;-68
2024/01/05 09:10:44;;;;;;;3.88;2.10;;;;;;;;;;5051958;28;20444;-68
2024/01/05 09:13:09;;;;;;;5.10;2.20;;;;;;;;;;5051884;28;20029;-68
2024/01/05 09:15:35;;;;;;;6.00;2.50;;;;;;;;;;5051520;28;20078;-67
2024/01/05 09:18:00;;;;;;;4.93;2.30;;;;;;;;;;5054239;28;20032;-67
2024/01/05 09:20:26;;;;;;;4.88;2.40;;;;;;;;;;5055851;28;20040;-67
2024/01/05 09:22:51;;;;;;;3.45;2.03;;;;;;;;;;5055737;28;20131;-67
2024/01/05 09:25:17;;;;;;;5.72;2.50;;;;;;;;;;5055816;28;20033;-67
2024/01/05 09:27:42;;;;;;;4.85;1.85;;;;;;;;;;5055697;28;20029;-67
2024/01/05 09:30:08;;;;;;;4.70;2.78;;;;;;;;;;5055473;28;20039;-67
2024/01/05 09:32:33;;;;;;;6.57;3.17;;;;;;;;;;5055593;28;20017;-67
2024/01/05 09:34:59;;;;;;;4.63;2.28;;;;;;;;;;5055632;28;20162;-67
2024/01/05 09:37:24;;;;;;;3.80;2.22;;;;;;;;;;5055538;28;20029;-69
2024/01/05 09:39:49;;;;;;;7.15;1.52;;;;;;;;;;5055262;28;20029;-67
2024/01/05 09:42:15;;;;;;;7.93;3.25;;;;;;;;;;5055458;28;20028;-66
2024/01/05 09:44:42;;;;;;;3.35;1.88;;;;;;;;;;5055036;28;20020;-67
2024/01/05 09:47:08;;;;;;;7.85;3.03;;;;;;;;;;5054888;28;20229;-67
2024/01/05 09:49:39;;;;;;;7.20;2.85;;;;;;;;;;5055294;28;20056;-67
2024/01/05 09:52:05;;;;;;;3.35;2.15;;;;;;;;;;5055187;28;20029;-67
2024/01/05 09:54:30;;;;;;;3.22;1.73;;;;;;;;;;5055285;28;20027;-67
2024/01/05 09:56:56;;;;;;;7.97;2.67;;;;;;;;;;5055005;28;20102;-67
2024/01/05 09:59:24;;;;;;;10.77;3.25;;;;;;;;;;5054959;28;20029;-67
2024/01/05 10:01:50;;;;;;;4.55;2.10;;;;;;;;;;5055740;28;20105;-67
2024/01/05 10:04:16;;;;;;;7.10;2.50;;;;;;;;;;5054941;28;20087;-67
2024/01/05 10:06:41;;;;;;;5.38;2.47;;;;;;;;;;5054742;28;20024;-67
2024/01/05 10:09:07;;;;;;;14.23;3.30;;;;;;;;;;5054959;28;20025;-67
2024/01/05 10:11:35;;;;;;;4.40;2.35;;;;;;;;;;5053655;28;20082;-67
2024/01/05 10:14:03;;;;;;;9.98;3.60;;;;;;;;;;5054598;28;20116;-68
2024/01/05 10:16:39;;;;;;;27.98;7.35;;;;;;;;;;5054924;28;20045;-67
2024/01/05 10:19:18;;;;;;;14.73;4.20;;;;;;;;;;5054913;28;20382;-68
2024/01/05 10:21:47;;;;;;;11.75;3.85;;;;;;;;;;5053462;28;20025;-68
2024/01/05 10:24:29;;;;;;;16.05;4.53;;;;;;;;;;5054642;28;20032;-67
2024/01/05 10:27:00;;;;;;;10.75;3.45;;;;;;;;;;5054586;28;20108;-67
2024/01/05 10:29:26;;;;;;;17.45;4.65;;;;;;;;;;5053628;28;20067;-68
2024/01/05 10:31:52;;;;;;;4.30;2.40;;;;;;;;;;5054213;28;20020;-67
2024/01/05 10:34:17;;;;;;;10.35;3.30;;;;;;;;;;5054461;28;20025;-67
2024/01/05 10:36:42;;;;;;;11.32;3.65;;;;;;;;;;5054437;28;20063;-67
2024/01/05 10:39:09;;;;;;;11.05;2.90;;;;;;;;;;5054468;28;20033;-67
2024/01/05 10:41:34;;;;;;;9.23;3.10;;;;;;;;;;5054400;28;20029;-67
2024/01/05 10:44:02;;;;;;;10.43;3.67;;;;;;;;;;5053689;28;20074;-67
2024/01/05 10:46:30;;;;;;;8.23;3.70;;;;;;;;;;5042105;28;20116;-67
2024/01/05 10:48:56;;;;;;;9.73;2.92;;;;;;;;;;5054176;28;20116;-67
2024/01/05 10:51:25;;;;;;;4.80;2.58;;;;;;;;;;5053967;28;20475;-67
2024/01/05 10:53:51;;;;;;;5.50;2.63;;;;;;;;;;5054042;28;20032;-67
2024/01/05 10:56:19;;;;;;;18.92;4.93;;;;;;;;;;5053784;28;20048;-67
2024/01/05 10:58:47;;;;;;;8.82;3.67;;;;;;;;;;5053936;28;20470;-67
2024/01/05 11:01:13;;;;;;;8.70;3.47;;;;;;;;;;5054846;28;20033;-67
2024/01/05 11:03:43;;;;;;;10.15;2.78;;;;;;;;;;5054003;28;20036;-67
2024/01/05 11:06:10;;;;;;;12.32;4.47;;;;;;;;;;5053683;28;20017;-67
2024/01/05 11:09:13;;;;;;;7.50;4.18;;;;;;;;;;5054062;28;20029;-67
2024/01/05 11:12:03;;;;;;;7.43;3.80;;;;;;;;;;5050566;28;20410;-66
2024/01/05 11:14:52;;;;;;;6.07;2.97;;;;;;;;;;5053795;28;20475;-67
2024/01/05 11:17:47;;;;;;;5.97;3.28;;;;;;;;;;5053647;28;20033;-66
2024/01/05 11:20:18;;;;;;;7.13;3.33;;;;;;;;;;5053620;28;20033;-66
2024/01/05 11:22:47;;;;;;;9.05;3.38;;;;;;;;;;5053733;28;20032;-67
2024/01/05 11:25:15;;;;;;;9.02;4.30;;;;;;;;;;5053329;28;20033;-67
2024/01/05 11:27:45;;;;;;;25.00;6.88;;;;;;;;;;5053320;28;20036;-67
2024/01/05 11:30:11;;;;;;;34.45;10.23;;;;;;;;;;5053397;28;20024;-67
2024/01/05 11:32:46;;;;;;;8.70;4.07;;;;;;;;;;5053544;28;20132;-67
2024/01/05 11:35:19;;;;;;;8.70;3.80;;;;;;;;;;5053200;28;20028;-66
2024/01/05 11:37:46;;;;;;;5.35;3.10;;;;;;;;;;5053727;28;20048;-66
2024/01/05 11:40:29;;;;;;;6.78;3.33;;;;;;;;;;5066552;28;20080;-67
2024/01/05 11:42:57;;;;;;;7.93;3.10;;;;;;;;;;5064082;28;20518;-67
2024/01/05 11:45:41;;;;;;;12.25;4.40;;;;;;;;;;5052182;28;20033;-66
2024/01/05 11:48:07;;;;;;;11.88;4.20;;;;;;;;;;5057100;28;20082;-67
2024/01/05 11:50:37;;;;;;;9.88;4.28;;;;;;;;;;5065598;28;20036;-66
2024/01/05 11:53:19;;;;;;;8.52;3.20;;;;;;;;;;5061026;28;20039;-66
2024/01/05 11:55:52;;;;;;;8.82;5.25;;;;;;;;;;5057934;28;20037;-66
2024/01/05 11:58:17;;;;;;;6.35;3.25;;;;;;;;;;5068910;28;20093;-67
2024/01/05 12:00:45;;;;;;;9.10;3.40;;;;;;;;;;5059385;28;20446;-66
2024/01/05 12:03:10;;;;;;;8.82;4.15;;;;;;;;;;5063039;28;20028;-66
2024/01/05 12:05:38;;;;;;;4.13;2.92;;;;;;;;;;5065287;28;20074;-68
2024/01/05 12:08:04;;;;;;;3.70;2.47;;;;;;;;;;5055477;28;20020;-67
2024/01/05 12:10:30;;;;;;;6.05;3.38;;;;;;;;;;5067877;28;20048;-67
2024/01/05 12:12:57;;;;;;;9.32;3.80;;;;;;;;;;5052199;28;20028;-67
2024/01/05 12:15:23;;;;;;;3.72;2.63;;;;;;;;;;5063150;28;20024;-67
2024/01/05 12:17:49;;;;;;;4.18;2.35;;;;;;;;;;5057358;28;20048;-67
2024/01/05 12:20:16;;;;;;;7.20;3.50;;;;;;;;;;5068399;28;20462;-68
2024/01/05 12:22:42;;;;;;;6.28;3.10;;;;;;;;;;5057207;28;20484;-68
2024/01/05 12:25:07;;;;;;;5.13;2.13;;;;;;;;;;5067961;28;20072;-67
2024/01/05 12:27:40;;;;;;;6.38;3.25;;;;;;;;;;5051140;28;20140;-66
2024/01/05 12:30:07;;;;;;;5.90;3.25;;;;;;;;;;5052665;28;20037;-67
2024/01/05 12:32:35;;;;;;;5.65;2.55;;;;;;;;;;5052028;28;20083;-67
2024/01/05 12:35:02;;;;;;;8.05;3.20;;;;;;;;;;5053311;28;20148;-67
2024/01/05 12:37:28;;;;;;;5.90;3.63;;;;;;;;;;5051746;28;20076;-67
2024/01/05 12:39:54;;;;;;;7.28;4.30;;;;;;;;;;5051542;28;20501;-67
2024/01/05 12:42:20;;;;;;;7.63;3.20;;;;;;;;;;5052531;28;20021;-67
2024/01/05 12:44:45;;;;;;;5.10;2.80;;;;;;;;;;5051205;28;20102;-67
2024/01/05 12:47:11;;;;;;;6.93;2.92;;;;;;;;;;5052139;28;20037;-67
2024/01/05 12:49:37;;;;;;;5.10;3.30;;;;;;;;;;5049078;28;20041;-67
2024/01/05 12:52:04;;;;;;;7.63;3.22;;;;;;;;;;5064349;28;20040;-67
2024/01/05 12:54:42;;;;;;;5.38;3.13;;;;;;;;;;5070119;28;20051;-66
2024/01/05 12:57:08;;;;;;;4.40;2.70;;;;;;;;;;5070217;28;20143;-66
2024/01/05 12:59:36;;;;;;;4.32;2.65;;;;;;;;;;5070409;28;20082;-67
2024/01/05 13:02:03;;;;;;;4.35;1.73;;;;;;;;;;5070533;28;20333;-67
2024/01/05 13:04:35;;;;;;;3.63;2.28;;;;;;;;;;5070215;28;20543;-67
2024/01/05 13:07:01;;;;;;;5.32;2.97;;;;;;;;;;5070281;28;20025;-67
2024/01/05 13:09:26;;;;;;;4.43;2.55;;;;;;;;;;5071495;28;20357;-66
2024/01/05 13:11:53;;;;;;;6.32;2.78;;;;;;;;;;5072228;28;20051;-67
2024/01/05 13:14:19;;;;;;;3.05;2.13;;;;;;;;;;5072303;28;20033;-67
2024/01/05 13:16:46;;;;;;;3.50;1.85;;;;;;;;;;5072276;28;20029;-68
2024/01/05 13:19:11;;;;;;;5.30;2.30;;;;;;;;;;5072420;28;20029;-67
2024/01/05 13:21:36;;;;;;;7.22;3.90;;;;;;;;;;5072232;28;20032;-67
2024/01/05 13:24:03;;;;;;;5.80;3.05;;;;;;;;;;5071954;28;20039;-67
2024/01/05 13:26:28;;;;;;;6.45;3.92;;;;;;;;;;5072191;28;20024;-68
2024/01/05 13:28:54;;;;;;;6.03;3.13;;;;;;;;;;5072283;28;20050;-67
2024/01/05 13:31:19;;;;;;;4.75;2.75;;;;;;;;;;5072268;28;20477;-67
2024/01/05 13:33:44;;;;;;;4.78;2.15;;;;;;;;;;5058932;28;20032;-67
2024/01/05 13:36:10;;;;;;;6.32;2.35;;;;;;;;;;5052154;28;20116;-68
2024/01/05 13:38:35;;;;;;;5.57;3.10;;;;;;;;;;5052087;28;20051;-68
2024/01/05 13:41:01;;;;;;;7.72;3.10;;;;;;;;;;5052215;28;20132;-68
2024/01/05 13:43:26;;;;;;;3.08;2.05;;;;;;;;;;5052087;28;20029;-68
2024/01/05 13:45:54;;;;;;;4.22;3.00;;;;;;;;;;5051859;28;20068;-68
2024/01/05 13:48:20;;;;;;;5.05;2.53;;;;;;;;;;5052037;28;20025;-68
2024/01/05 13:50:45;;;;;;;4.85;2.63;;;;;;;;;;5054829;28;20077;-67
2024/01/05 13:53:12;;;;;;;4.32;2.42;;;;;;;;;;5071870;28;20025;-67
2024/01/05 13:55:38;;;;;;;7.90;3.38;;;;;;;;;;5071499;28;20048;-67
2024/01/05 13:58:04;;;;;;;7.75;4.38;;;;;;;;;;5071988;28;20516;-68
2024/01/05 14:00:29;;;;;;;5.97;2.83;;;;;;;;;;5071895;28;20031;-67
2024/01/05 14:02:55;;;;;;;10.65;4.78;;;;;;;;;;5072286;28;20020;-67
2024/01/05 14:05:20;;;;;;;5.63;2.67;;;;;;;;;;5074981;28;20035;-66
2024/01/05 14:07:46;;;;;;;4.63;2.35;;;;;;;;;;5074940;28;20028;-67
2024/01/05 14:10:11;;;;;;;5.55;3.03;;;;;;;;;;5075064;28;20103;-68
2024/01/05 14:12:37;;;;;;;6.70;3.35;;;;;;;;;;5075186;28;20113;-67
2024/01/05 14:15:05;;;;;;;6.53;3.40;;;;;;;;;;5075102;28;20065;-67
2024/01/05 14:17:31;;;;;;;4.95;3.08;;;;;;;;;;5075015;28;20136;-68
2024/01/05 14:19:57;;;;;;;5.35;2.17;;;;;;;;;;5074814;28;20049;-68
2024/01/05 14:22:23;;;;;;;4.40;1.67;;;;;;;;;;5073962;28;20038;-68
2024/01/05 14:24:49;;;;;;;4.30;2.47;;;;;;;;;;5074673;28;20029;-68
2024/01/05 14:27:14;;;;;;;6.57;3.05;;;;;;;;;;5074994;28;20351;-68
2024/01/05 14:29:41;;;;;;;5.55;3.13;;;;;;;;;;5075151;28;20038;-68
2024/01/05 14:32:07;;;;;;;4.57;2.88;;;;;;;;;;5075028;28;20409;-67
2024/01/05 14:34:33;;;;;;;7.30;3.47;;;;;;;;;;5054789;28;20428;-68
2024/01/05 14:36:58;;;;;;;5.60;2.97;;;;;;;;;;5053355;28;20033;-68